sensor_id;sensor_type;location;lat;lon;timestamp;P1;durP1;ratioP1;P2;durP2;ratioP2
74660;SDS011;63191;39.566;2.654;2023-04-28T00:00:31;4.00;;;0.70;;
74660;SDS011;63191;39.566;2.654;2023-04-28T00:02:56;2.30;;;0.60;;
74660;SDS011;63191;39.566;2.654;2023-04-28T00:05:22;2.30;;;0.70;;
74660;SDS011;63191;39.566;2.654;2023-04-28T00:07:49;3.60;;;0.80;;
74660;SDS011;63191;39.566;2.654;2023-04-28T00:10:16;3.20;;;0.70;;
74660;SDS011;63191;39.566;2.654;2023-04-28T00:12:42;2.80;;;0.70;;
74660;SDS011;63191;39.566;2.654;2023-04-28T00:15:08;3.50;;;0.80;;
74660;SDS011;63191;39.566;2.654;2023-04-28T00:17:35;3.80;;;0.90;;
74660;SDS011;63191;39.566;2.654;2023-04-28T00:20:01;3.10;;;0.90;;
74660;SDS011;63191;39.566;2.654;2023-04-28T00:22:27;3.30;;;0.80;;
74660;SDS011;63191;39.566;2.654;2023-04-28T00:24:53;3.30;;;0.80;;
74660;SDS011;63191;39.566;2.654;2023-04-28T00:27:19;2.60;;;0.90;;
74660;SDS011;63191;39.566;2.654;2023-04-28T00:29:45;3.60;;;0.80;;
74660;SDS011;63191;39.566;2.654;2023-04-28T00:32:11;3.70;;;0.80;;
74660;SDS011;63191;39.566;2.654;2023-04-28T00:34:37;2.50;;;0.80;;
74660;SDS011;63191;39.566;2.654;2023-04-28T00:37:03;4.30;;;0.60;;
74660;SDS011;63191;39.566;2.654;2023-04-28T00:39:29;5.90;;;1.00;;
74660;SDS011;63191;39.566;2.654;2023-04-28T00:41:54;2.70;;;0.70;;
74660;SDS011;63191;39.566;2.654;2023-04-28T00:44:21;3.20;;;0.90;;
74660;SDS011;63191;39.566;2.654;2023-04-28T00:46:46;5.00;;;0.80;;
74660;SDS011;63191;39.566;2.654;2023-04-28T00:49:14;4.00;;;1.00;;
74660;SDS011;63191;39.566;2.654;2023-04-28T00:51:40;4.70;;;0.80;;
74660;SDS011;63191;39.566;2.654;2023-04-28T00:54:06;3.50;;;0.70;;
74660;SDS011;63191;39.566;2.654;2023-04-28T00:56:33;2.80;;;0.90;;
74660;SDS011;63191;39.566;2.654;2023-04-28T00:58:59;3.30;;;0.80;;
74660;SDS011;63191;39.566;2.654;2023-04-28T01:01:25;3.60;;;0.80;;
74660;SDS011;63191;39.566;2.654;2023-04-28T01:03:51;2.30;;;0.70;;
74660;SDS011;63191;39.566;2.654;2023-04-28T01:06:17;3.20;;;0.70;;
74660;SDS011;63191;39.566;2.654;2023-04-28T01:08:48;3.90;;;0.80;;
74660;SDS011;63191;39.566;2.654;2023-04-28T01:11:18;3.10;;;0.80;;
74660;SDS011;63191;39.566;2.654;2023-04-28T01:13:46;2.20;;;0.70;;
74660;SDS011;63191;39.566;2.654;2023-04-28T01:16:12;4.00;;;0.80;;
74660;SDS011;63191;39.566;2.654;2023-04-28T01:18:41;1.70;;;0.50;;
74660;SDS011;63191;39.566;2.654;2023-04-28T01:21:11;2.90;;;0.80;;
74660;SDS011;63191;39.566;2.654;2023-04-28T01:23:38;3.70;;;0.80;;
74660;SDS011;63191;39.566;2.654;2023-04-28T01:26:04;3.20;;;0.80;;
74660;SDS011;63191;39.566;2.654;2023-04-28T01:28:29;3.30;;;0.70;;
74660;SDS011;63191;39.566;2.654;2023-04-28T01:30:55;3.40;;;0.60;;
74660;SDS011;63191;39.566;2.654;2023-04-28T01:33:21;2.50;;;0.70;;
74660;SDS011;63191;39.566;2.654;2023-04-28T01:35:47;2.20;;;0.60;;
74660;SDS011;63191;39.566;2.654;2023-04-28T01:38:12;4.00;;;0.80;;
74660;SDS011;63191;39.566;2.654;2023-04-28T01:40:38;3.90;;;0.70;;
74660;SDS011;63191;39.566;2.654;2023-04-28T01:43:04;2.60;;;0.60;;
74660;SDS011;63191;39.566;2.654;2023-04-28T01:45:30;2.70;;;0.70;;
74660;SDS011;63191;39.566;2.654;2023-04-28T01:47:58;3.20;;;0.70;;
74660;SDS011;63191;39.566;2.654;2023-04-28T01:50:24;2.60;;;0.70;;
74660;SDS011;63191;39.566;2.654;2023-04-28T01:52:50;1.90;;;0.70;;
74660;SDS011;63191;39.566;2.654;2023-04-28T01:55:16;5.20;;;0.70;;
74660;SDS011;63191;39.566;2.654;2023-04-28T01:57:41;4.20;;;0.60;;
74660;SDS011;63191;39.566;2.654;2023-04-28T02:00:09;3.30;;;0.50;;
74660;SDS011;63191;39.566;2.654;2023-04-28T02:02:36;2.20;;;0.60;;
74660;SDS011;63191;39.566;2.654;2023-04-28T02:05:02;2.90;;;0.60;;
74660;SDS011;63191;39.566;2.654;2023-04-28T02:07:28;3.60;;;0.70;;
74660;SDS011;63191;39.566;2.654;2023-04-28T02:09:53;2.30;;;0.50;;
74660;SDS011;63191;39.566;2.654;2023-04-28T02:12:19;2.20;;;0.40;;
74660;SDS011;63191;39.566;2.654;2023-04-28T02:14:45;3.30;;;0.50;;
74660;SDS011;63191;39.566;2.654;2023-04-28T02:17:10;3.50;;;0.70;;
74660;SDS011;63191;39.566;2.654;2023-04-28T02:19:36;3.40;;;0.50;;
74660;SDS011;63191;39.566;2.654;2023-04-28T02:22:02;2.50;;;0.50;;
74660;SDS011;63191;39.566;2.654;2023-04-28T02:24:28;2.00;;;0.50;;
74660;SDS011;63191;39.566;2.654;2023-04-28T02:26:54;2.20;;;0.70;;
74660;SDS011;63191;39.566;2.654;2023-04-28T02:29:20;2.30;;;0.50;;
74660;SDS011;63191;39.566;2.654;2023-04-28T02:31:45;2.80;;;0.50;;
74660;SDS011;63191;39.566;2.654;2023-04-28T02:34:13;2.90;;;0.60;;
74660;SDS011;63191;39.566;2.654;2023-04-28T02:36:38;3.40;;;0.50;;
74660;SDS011;63191;39.566;2.654;2023-04-28T02:39:04;4.40;;;0.50;;
74660;SDS011;63191;39.566;2.654;2023-04-28T02:41:30;2.40;;;0.60;;
74660;SDS011;63191;39.566;2.654;2023-04-28T02:43:56;2.60;;;0.50;;
74660;SDS011;63191;39.566;2.654;2023-04-28T02:46:22;2.10;;;0.60;;
74660;SDS011;63191;39.566;2.654;2023-04-28T02:48:47;2.40;;;0.60;;
74660;SDS011;63191;39.566;2.654;2023-04-28T02:51:13;2.60;;;0.60;;
74660;SDS011;63191;39.566;2.654;2023-04-28T02:53:39;1.70;;;0.40;;
74660;SDS011;63191;39.566;2.654;2023-04-28T02:56:05;2.80;;;0.50;;
74660;SDS011;63191;39.566;2.654;2023-04-28T02:58:31;3.30;;;0.60;;
74660;SDS011;63191;39.566;2.654;2023-04-28T03:01:00;2.20;;;0.50;;
74660;SDS011;63191;39.566;2.654;2023-04-28T03:03:26;3.60;;;0.60;;
74660;SDS011;63191;39.566;2.654;2023-04-28T03:05:52;3.20;;;0.60;;
74660;SDS011;63191;39.566;2.654;2023-04-28T03:08:20;5.60;;;0.50;;
74660;SDS011;63191;39.566;2.654;2023-04-28T03:10:46;2.80;;;0.50;;
74660;SDS011;63191;39.566;2.654;2023-04-28T03:13:13;2.20;;;0.40;;
74660;SDS011;63191;39.566;2.654;2023-04-28T03:15:39;2.00;;;0.50;;
74660;SDS011;63191;39.566;2.654;2023-04-28T03:18:05;2.70;;;0.50;;
74660;SDS011;63191;39.566;2.654;2023-04-28T03:20:31;1.20;;;0.40;;
74660;SDS011;63191;39.566;2.654;2023-04-28T03:22:56;2.60;;;0.50;;
74660;SDS011;63191;39.566;2.654;2023-04-28T03:25:22;2.30;;;0.60;;
74660;SDS011;63191;39.566;2.654;2023-04-28T03:27:48;1.40;;;0.40;;
74660;SDS011;63191;39.566;2.654;2023-04-28T03:30:14;3.30;;;0.70;;
74660;SDS011;63191;39.566;2.654;2023-04-28T03:32:39;2.20;;;0.50;;
74660;SDS011;63191;39.566;2.654;2023-04-28T03:35:05;2.90;;;0.60;;
74660;SDS011;63191;39.566;2.654;2023-04-28T03:37:32;2.50;;;0.80;;
74660;SDS011;63191;39.566;2.654;2023-04-28T03:39:57;2.70;;;0.80;;
74660;SDS011;63191;39.566;2.654;2023-04-28T03:42:23;4.00;;;1.10;;
74660;SDS011;63191;39.566;2.654;2023-04-28T03:44:49;4.00;;;0.70;;
74660;SDS011;63191;39.566;2.654;2023-04-28T03:47:14;1.90;;;0.60;;
74660;SDS011;63191;39.566;2.654;2023-04-28T03:49:40;6.30;;;0.60;;
74660;SDS011;63191;39.566;2.654;2023-04-28T03:52:06;3.20;;;0.40;;
74660;SDS011;63191;39.566;2.654;2023-04-28T03:54:31;2.20;;;0.50;;
74660;SDS011;63191;39.566;2.654;2023-04-28T03:56:57;3.00;;;0.50;;
74660;SDS011;63191;39.566;2.654;2023-04-28T03:59:24;2.70;;;0.60;;
74660;SDS011;63191;39.566;2.654;2023-04-28T04:01:50;1.60;;;0.40;;
74660;SDS011;63191;39.566;2.654;2023-04-28T04:04:15;3.40;;;0.50;;
74660;SDS011;63191;39.566;2.654;2023-04-28T04:06:41;4.70;;;0.50;;
74660;SDS011;63191;39.566;2.654;2023-04-28T04:09:07;3.30;;;0.80;;
74660;SDS011;63191;39.566;2.654;2023-04-28T04:11:33;2.90;;;0.60;;
74660;SDS011;63191;39.566;2.654;2023-04-28T04:13:58;2.20;;;0.40;;
74660;SDS011;63191;39.566;2.654;2023-04-28T04:16:24;2.40;;;0.60;;
74660;SDS011;63191;39.566;2.654;2023-04-28T04:18:50;2.80;;;0.60;;
74660;SDS011;63191;39.566;2.654;2023-04-28T04:21:16;3.30;;;0.60;;
74660;SDS011;63191;39.566;2.654;2023-04-28T04:23:41;4.60;;;0.70;;
74660;SDS011;63191;39.566;2.654;2023-04-28T04:26:08;3.30;;;0.70;;
74660;SDS011;63191;39.566;2.654;2023-04-28T04:28:34;3.00;;;0.60;;
74660;SDS011;63191;39.566;2.654;2023-04-28T04:31:01;3.20;;;0.80;;
74660;SDS011;63191;39.566;2.654;2023-04-28T04:33:27;5.30;;;1.30;;
74660;SDS011;63191;39.566;2.654;2023-04-28T04:35:53;5.00;;;1.30;;
74660;SDS011;63191;39.566;2.654;2023-04-28T04:38:19;5.50;;;1.30;;
74660;SDS011;63191;39.566;2.654;2023-04-28T04:40:44;6.10;;;1.00;;
74660;SDS011;63191;39.566;2.654;2023-04-28T04:43:10;2.30;;;0.50;;
74660;SDS011;63191;39.566;2.654;2023-04-28T04:45:36;2.90;;;0.60;;
74660;SDS011;63191;39.566;2.654;2023-04-28T04:48:02;4.60;;;0.80;;
74660;SDS011;63191;39.566;2.654;2023-04-28T04:50:28;2.50;;;0.60;;
74660;SDS011;63191;39.566;2.654;2023-04-28T04:52:53;3.10;;;0.60;;
74660;SDS011;63191;39.566;2.654;2023-04-28T04:55:21;4.20;;;0.70;;
74660;SDS011;63191;39.566;2.654;2023-04-28T04:57:47;4.70;;;0.50;;
74660;SDS011;63191;39.566;2.654;2023-04-28T05:00:13;5.50;;;0.80;;
74660;SDS011;63191;39.566;2.654;2023-04-28T05:02:41;2.20;;;0.60;;
74660;SDS011;63191;39.566;2.654;2023-04-28T05:05:07;3.70;;;0.50;;
74660;SDS011;63191;39.566;2.654;2023-04-28T05:07:33;2.20;;;0.70;;
74660;SDS011;63191;39.566;2.654;2023-04-28T05:10:00;3.40;;;0.50;;
74660;SDS011;63191;39.566;2.654;2023-04-28T05:12:25;3.80;;;0.60;;
74660;SDS011;63191;39.566;2.654;2023-04-28T05:14:51;2.40;;;0.50;;
74660;SDS011;63191;39.566;2.654;2023-04-28T05:17:17;4.30;;;0.70;;
74660;SDS011;63191;39.566;2.654;2023-04-28T05:19:43;2.80;;;0.70;;
74660;SDS011;63191;39.566;2.654;2023-04-28T05:22:09;2.50;;;0.50;;
74660;SDS011;63191;39.566;2.654;2023-04-28T05:24:35;2.60;;;0.70;;
74660;SDS011;63191;39.566;2.654;2023-04-28T05:27:01;4.60;;;0.70;;
74660;SDS011;63191;39.566;2.654;2023-04-28T05:29:27;3.00;;;0.60;;
74660;SDS011;63191;39.566;2.654;2023-04-28T05:31:53;4.10;;;0.70;;
74660;SDS011;63191;39.566;2.654;2023-04-28T05:34:18;5.50;;;0.80;;
74660;SDS011;63191;39.566;2.654;2023-04-28T05:36:44;3.60;;;0.90;;
74660;SDS011;63191;39.566;2.654;2023-04-28T05:39:10;4.00;;;0.80;;
74660;SDS011;63191;39.566;2.654;2023-04-28T05:41:36;3.10;;;0.60;;
74660;SDS011;63191;39.566;2.654;2023-04-28T05:44:02;6.30;;;0.80;;
74660;SDS011;63191;39.566;2.654;2023-04-28T05:46:28;6.50;;;0.70;;
74660;SDS011;63191;39.566;2.654;2023-04-28T05:48:53;8.40;;;1.00;;
74660;SDS011;63191;39.566;2.654;2023-04-28T05:51:19;4.30;;;0.80;;
74660;SDS011;63191;39.566;2.654;2023-04-28T05:53:46;4.00;;;1.00;;
74660;SDS011;63191;39.566;2.654;2023-04-28T05:56:15;4.40;;;1.00;;
74660;SDS011;63191;39.566;2.654;2023-04-28T05:58:42;4.40;;;0.90;;
74660;SDS011;63191;39.566;2.654;2023-04-28T06:01:11;4.30;;;0.80;;
74660;SDS011;63191;39.566;2.654;2023-04-28T06:03:37;4.40;;;1.20;;
74660;SDS011;63191;39.566;2.654;2023-04-28T06:06:06;6.10;;;1.30;;
74660;SDS011;63191;39.566;2.654;2023-04-28T06:08:34;4.70;;;1.20;;
74660;SDS011;63191;39.566;2.654;2023-04-28T06:10:59;5.00;;;1.40;;
74660;SDS011;63191;39.566;2.654;2023-04-28T06:13:25;6.20;;;1.50;;
74660;SDS011;63191;39.566;2.654;2023-04-28T06:15:51;5.40;;;1.40;;
74660;SDS011;63191;39.566;2.654;2023-04-28T06:18:17;4.90;;;1.60;;
74660;SDS011;63191;39.566;2.654;2023-04-28T06:20:43;5.50;;;1.70;;
74660;SDS011;63191;39.566;2.654;2023-04-28T06:23:09;6.20;;;2.00;;
74660;SDS011;63191;39.566;2.654;2023-04-28T06:25:35;6.10;;;1.90;;
74660;SDS011;63191;39.566;2.654;2023-04-28T06:28:01;5.10;;;1.90;;
74660;SDS011;63191;39.566;2.654;2023-04-28T06:30:27;7.40;;;2.10;;
74660;SDS011;63191;39.566;2.654;2023-04-28T06:32:53;7.20;;;2.00;;
74660;SDS011;63191;39.566;2.654;2023-04-28T06:35:20;7.90;;;1.80;;
74660;SDS011;63191;39.566;2.654;2023-04-28T06:37:46;8.40;;;2.10;;
74660;SDS011;63191;39.566;2.654;2023-04-28T06:40:13;6.30;;;2.20;;
74660;SDS011;63191;39.566;2.654;2023-04-28T06:42:39;5.90;;;2.30;;
74660;SDS011;63191;39.566;2.654;2023-04-28T06:45:06;5.20;;;2.30;;
74660;SDS011;63191;39.566;2.654;2023-04-28T06:47:33;6.40;;;2.00;;
74660;SDS011;63191;39.566;2.654;2023-04-28T06:50:05;6.90;;;2.00;;
74660;SDS011;63191;39.566;2.654;2023-04-28T06:52:31;6.20;;;2.30;;
74660;SDS011;63191;39.566;2.654;2023-04-28T06:54:57;7.80;;;2.20;;
74660;SDS011;63191;39.566;2.654;2023-04-28T06:57:22;8.60;;;2.10;;
74660;SDS011;63191;39.566;2.654;2023-04-28T06:59:48;6.10;;;2.00;;
74660;SDS011;63191;39.566;2.654;2023-04-28T07:02:14;6.80;;;1.70;;
74660;SDS011;63191;39.566;2.654;2023-04-28T07:04:40;5.70;;;1.80;;
74660;SDS011;63191;39.566;2.654;2023-04-28T07:07:06;6.50;;;1.80;;
74660;SDS011;63191;39.566;2.654;2023-04-28T07:09:35;7.10;;;2.00;;
74660;SDS011;63191;39.566;2.654;2023-04-28T07:12:02;7.50;;;1.60;;
74660;SDS011;63191;39.566;2.654;2023-04-28T07:14:31;7.30;;;1.70;;
74660;SDS011;63191;39.566;2.654;2023-04-28T07:16:58;8.00;;;1.60;;
74660;SDS011;63191;39.566;2.654;2023-04-28T07:19:24;6.30;;;1.80;;
74660;SDS011;63191;39.566;2.654;2023-04-28T07:21:50;5.70;;;1.50;;
74660;SDS011;63191;39.566;2.654;2023-04-28T07:24:15;7.20;;;1.70;;
74660;SDS011;63191;39.566;2.654;2023-04-28T07:26:41;6.90;;;1.70;;
74660;SDS011;63191;39.566;2.654;2023-04-28T07:29:07;7.20;;;1.60;;
74660;SDS011;63191;39.566;2.654;2023-04-28T07:31:33;6.20;;;1.50;;
74660;SDS011;63191;39.566;2.654;2023-04-28T07:33:59;5.60;;;1.30;;
74660;SDS011;63191;39.566;2.654;2023-04-28T07:36:26;4.70;;;1.50;;
74660;SDS011;63191;39.566;2.654;2023-04-28T07:38:52;6.30;;;1.80;;
74660;SDS011;63191;39.566;2.654;2023-04-28T07:41:18;5.90;;;1.60;;
74660;SDS011;63191;39.566;2.654;2023-04-28T07:43:43;4.20;;;1.60;;
74660;SDS011;63191;39.566;2.654;2023-04-28T07:46:09;4.80;;;1.70;;
74660;SDS011;63191;39.566;2.654;2023-04-28T07:48:38;9.50;;;1.90;;
74660;SDS011;63191;39.566;2.654;2023-04-28T07:51:07;7.80;;;2.10;;
74660;SDS011;63191;39.566;2.654;2023-04-28T07:53:35;7.40;;;2.30;;
74660;SDS011;63191;39.566;2.654;2023-04-28T07:56:02;8.40;;;2.40;;
74660;SDS011;63191;39.566;2.654;2023-04-28T07:58:28;6.40;;;2.20;;
74660;SDS011;63191;39.566;2.654;2023-04-28T08:00:53;4.60;;;1.60;;
74660;SDS011;63191;39.566;2.654;2023-04-28T08:03:19;7.90;;;2.10;;
74660;SDS011;63191;39.566;2.654;2023-04-28T08:05:45;6.30;;;1.70;;
74660;SDS011;63191;39.566;2.654;2023-04-28T08:08:11;9.00;;;3.10;;
74660;SDS011;63191;39.566;2.654;2023-04-28T08:10:37;9.70;;;4.10;;
74660;SDS011;63191;39.566;2.654;2023-04-28T08:13:05;9.90;;;3.90;;
74660;SDS011;63191;39.566;2.654;2023-04-28T08:15:35;7.90;;;3.10;;
74660;SDS011;63191;39.566;2.654;2023-04-28T08:18:00;11.90;;;4.70;;
74660;SDS011;63191;39.566;2.654;2023-04-28T08:20:26;9.70;;;4.30;;
74660;SDS011;63191;39.566;2.654;2023-04-28T08:22:56;11.80;;;4.70;;
74660;SDS011;63191;39.566;2.654;2023-04-28T08:25:23;9.90;;;4.00;;
74660;SDS011;63191;39.566;2.654;2023-04-28T08:27:49;7.70;;;3.40;;
74660;SDS011;63191;39.566;2.654;2023-04-28T08:30:14;8.10;;;3.30;;
74660;SDS011;63191;39.566;2.654;2023-04-28T08:32:40;8.30;;;3.10;;
74660;SDS011;63191;39.566;2.654;2023-04-28T08:35:06;6.60;;;3.00;;
74660;SDS011;63191;39.566;2.654;2023-04-28T08:37:32;7.50;;;3.00;;
74660;SDS011;63191;39.566;2.654;2023-04-28T08:40:01;8.70;;;2.30;;
74660;SDS011;63191;39.566;2.654;2023-04-28T08:42:34;7.80;;;2.60;;
74660;SDS011;63191;39.566;2.654;2023-04-28T08:45:02;8.50;;;2.90;;
74660;SDS011;63191;39.566;2.654;2023-04-28T08:47:37;7.20;;;3.10;;
74660;SDS011;63191;39.566;2.654;2023-04-28T08:50:06;7.00;;;2.80;;
74660;SDS011;63191;39.566;2.654;2023-04-28T08:52:34;6.10;;;2.20;;
74660;SDS011;63191;39.566;2.654;2023-04-28T08:55:05;7.30;;;3.00;;
74660;SDS011;63191;39.566;2.654;2023-04-28T08:57:47;5.90;;;2.50;;
74660;SDS011;63191;39.566;2.654;2023-04-28T09:00:15;6.10;;;2.50;;
74660;SDS011;63191;39.566;2.654;2023-04-28T09:02:41;6.30;;;2.80;;
74660;SDS011;63191;39.566;2.654;2023-04-28T09:05:09;6.50;;;2.70;;
74660;SDS011;63191;39.566;2.654;2023-04-28T09:07:35;5.70;;;2.90;;
74660;SDS011;63191;39.566;2.654;2023-04-28T09:12:43;5.90;;;2.10;;
74660;SDS011;63191;39.566;2.654;2023-04-28T09:15:09;6.60;;;1.70;;
74660;SDS011;63191;39.566;2.654;2023-04-28T09:17:50;5.10;;;1.90;;
74660;SDS011;63191;39.566;2.654;2023-04-28T09:20:26;7.90;;;1.70;;
74660;SDS011;63191;39.566;2.654;2023-04-28T09:22:54;4.30;;;1.70;;
74660;SDS011;63191;39.566;2.654;2023-04-28T09:25:22;3.60;;;1.60;;
74660;SDS011;63191;39.566;2.654;2023-04-28T09:27:51;4.60;;;1.70;;
74660;SDS011;63191;39.566;2.654;2023-04-28T09:30:17;5.70;;;1.80;;
74660;SDS011;63191;39.566;2.654;2023-04-28T09:32:44;4.20;;;1.60;;
74660;SDS011;63191;39.566;2.654;2023-04-28T09:35:10;3.40;;;1.40;;
74660;SDS011;63191;39.566;2.654;2023-04-28T09:37:36;4.80;;;1.50;;
74660;SDS011;63191;39.566;2.654;2023-04-28T09:40:07;3.70;;;1.10;;
74660;SDS011;63191;39.566;2.654;2023-04-28T09:42:39;2.90;;;1.30;;
74660;SDS011;63191;39.566;2.654;2023-04-28T09:45:07;3.30;;;1.80;;
74660;SDS011;63191;39.566;2.654;2023-04-28T09:47:37;5.30;;;1.90;;
74660;SDS011;63191;39.566;2.654;2023-04-28T09:50:06;3.70;;;1.50;;
74660;SDS011;63191;39.566;2.654;2023-04-28T09:52:40;3.90;;;1.40;;
74660;SDS011;63191;39.566;2.654;2023-04-28T09:55:06;4.10;;;1.40;;
74660;SDS011;63191;39.566;2.654;2023-04-28T09:57:34;3.30;;;1.30;;
74660;SDS011;63191;39.566;2.654;2023-04-28T10:00:01;3.70;;;1.50;;
74660;SDS011;63191;39.566;2.654;2023-04-28T10:02:34;4.00;;;1.60;;
74660;SDS011;63191;39.566;2.654;2023-04-28T10:05:01;4.50;;;1.80;;
74660;SDS011;63191;39.566;2.654;2023-04-28T10:07:27;6.80;;;1.90;;
74660;SDS011;63191;39.566;2.654;2023-04-28T10:09:55;6.20;;;1.90;;
74660;SDS011;63191;39.566;2.654;2023-04-28T10:12:23;5.20;;;2.10;;
74660;SDS011;63191;39.566;2.654;2023-04-28T10:14:50;5.90;;;1.90;;
74660;SDS011;63191;39.566;2.654;2023-04-28T10:17:21;6.10;;;2.30;;
74660;SDS011;63191;39.566;2.654;2023-04-28T10:19:53;7.40;;;2.70;;
74660;SDS011;63191;39.566;2.654;2023-04-28T10:27:42;6.00;;;2.80;;
74660;SDS011;63191;39.566;2.654;2023-04-28T10:32:39;7.10;;;2.70;;
74660;SDS011;63191;39.566;2.654;2023-04-28T10:38:06;4.90;;;2.00;;
74660;SDS011;63191;39.566;2.654;2023-04-28T10:43:08;6.60;;;1.90;;
74660;SDS011;63191;39.566;2.654;2023-04-28T10:48:21;4.80;;;1.20;;
74660;SDS011;63191;39.566;2.654;2023-04-28T10:56:10;6.60;;;1.40;;
74660;SDS011;63191;39.566;2.654;2023-04-28T10:58:37;5.60;;;1.10;;
74660;SDS011;63191;39.566;2.654;2023-04-28T11:03:55;5.10;;;1.50;;
74660;SDS011;63191;39.566;2.654;2023-04-28T11:06:26;4.20;;;1.30;;
74660;SDS011;63191;39.566;2.654;2023-04-28T11:16:58;4.70;;;1.50;;
74660;SDS011;63191;39.566;2.654;2023-04-28T11:19:35;7.10;;;1.70;;
74660;SDS011;63191;39.566;2.654;2023-04-28T11:22:12;4.90;;;1.30;;
74660;SDS011;63191;39.566;2.654;2023-04-28T11:24:39;5.00;;;1.50;;
74660;SDS011;63191;39.566;2.654;2023-04-28T11:27:05;5.70;;;1.60;;
74660;SDS011;63191;39.566;2.654;2023-04-28T11:29:38;4.60;;;1.20;;
74660;SDS011;63191;39.566;2.654;2023-04-28T11:32:08;4.80;;;1.50;;
74660;SDS011;63191;39.566;2.654;2023-04-28T11:34:36;5.80;;;1.50;;
74660;SDS011;63191;39.566;2.654;2023-04-28T11:37:02;6.90;;;1.60;;
74660;SDS011;63191;39.566;2.654;2023-04-28T11:39:31;5.40;;;1.30;;
74660;SDS011;63191;39.566;2.654;2023-04-28T11:41:59;5.40;;;1.60;;
74660;SDS011;63191;39.566;2.654;2023-04-28T11:44:28;5.10;;;1.50;;
74660;SDS011;63191;39.566;2.654;2023-04-28T11:46:57;5.70;;;1.30;;
74660;SDS011;63191;39.566;2.654;2023-04-28T11:49:30;6.80;;;1.70;;
74660;SDS011;63191;39.566;2.654;2023-04-28T11:52:07;9.10;;;2.60;;
74660;SDS011;63191;39.566;2.654;2023-04-28T11:54:34;5.20;;;1.50;;
74660;SDS011;63191;39.566;2.654;2023-04-28T11:57:03;5.50;;;1.50;;
74660;SDS011;63191;39.566;2.654;2023-04-28T11:59:33;6.20;;;1.70;;
74660;SDS011;63191;39.566;2.654;2023-04-28T12:02:01;6.60;;;1.50;;
74660;SDS011;63191;39.566;2.654;2023-04-28T12:04:39;6.20;;;1.60;;
74660;SDS011;63191;39.566;2.654;2023-04-28T12:07:16;7.30;;;1.80;;
74660;SDS011;63191;39.566;2.654;2023-04-28T12:09:46;5.90;;;1.60;;
74660;SDS011;63191;39.566;2.654;2023-04-28T12:12:29;7.30;;;1.50;;
74660;SDS011;63191;39.566;2.654;2023-04-28T12:15:06;7.50;;;2.30;;
74660;SDS011;63191;39.566;2.654;2023-04-28T12:17:37;4.40;;;1.60;;
74660;SDS011;63191;39.566;2.654;2023-04-28T12:20:08;6.60;;;1.90;;
74660;SDS011;63191;39.566;2.654;2023-04-28T12:22:49;5.20;;;1.70;;
74660;SDS011;63191;39.566;2.654;2023-04-28T12:25:18;6.20;;;1.60;;
74660;SDS011;63191;39.566;2.654;2023-04-28T12:28:01;7.00;;;1.70;;
74660;SDS011;63191;39.566;2.654;2023-04-28T12:30:30;5.10;;;1.70;;
74660;SDS011;63191;39.566;2.654;2023-04-28T12:33:02;8.00;;;2.00;;
74660;SDS011;63191;39.566;2.654;2023-04-28T12:35:28;7.40;;;1.80;;
74660;SDS011;63191;39.566;2.654;2023-04-28T12:37:55;6.80;;;1.90;;
74660;SDS011;63191;39.566;2.654;2023-04-28T12:40:23;6.50;;;1.90;;
74660;SDS011;63191;39.566;2.654;2023-04-28T12:42:50;8.30;;;2.20;;
74660;SDS011;63191;39.566;2.654;2023-04-28T12:45:26;8.80;;;2.10;;
74660;SDS011;63191;39.566;2.654;2023-04-28T12:47:53;7.70;;;1.80;;
74660;SDS011;63191;39.566;2.654;2023-04-28T12:50:22;8.10;;;1.80;;
74660;SDS011;63191;39.566;2.654;2023-04-28T12:52:49;7.40;;;1.50;;
74660;SDS011;63191;39.566;2.654;2023-04-28T12:55:15;6.10;;;1.20;;
74660;SDS011;63191;39.566;2.654;2023-04-28T12:57:44;7.50;;;1.80;;
74660;SDS011;63191;39.566;2.654;2023-04-28T13:02:35;6.10;;;1.50;;
74660;SDS011;63191;39.566;2.654;2023-04-28T13:05:02;6.60;;;1.50;;
74660;SDS011;63191;39.566;2.654;2023-04-28T13:07:29;7.20;;;1.60;;
74660;SDS011;63191;39.566;2.654;2023-04-28T13:09:58;6.40;;;1.90;;
74660;SDS011;63191;39.566;2.654;2023-04-28T13:12:24;9.70;;;1.30;;
74660;SDS011;63191;39.566;2.654;2023-04-28T13:14:53;7.70;;;1.60;;
74660;SDS011;63191;39.566;2.654;2023-04-28T13:17:18;8.10;;;1.60;;
74660;SDS011;63191;39.566;2.654;2023-04-28T13:19:44;6.60;;;1.70;;
74660;SDS011;63191;39.566;2.654;2023-04-28T13:22:10;6.40;;;1.60;;
74660;SDS011;63191;39.566;2.654;2023-04-28T13:24:36;7.10;;;1.90;;
74660;SDS011;63191;39.566;2.654;2023-04-28T13:27:02;6.70;;;1.70;;
74660;SDS011;63191;39.566;2.654;2023-04-28T13:29:28;6.60;;;2.20;;
74660;SDS011;63191;39.566;2.654;2023-04-28T13:31:54;6.80;;;2.50;;
74660;SDS011;63191;39.566;2.654;2023-04-28T13:34:21;6.60;;;1.90;;
74660;SDS011;63191;39.566;2.654;2023-04-28T13:36:47;7.10;;;2.70;;
74660;SDS011;63191;39.566;2.654;2023-04-28T13:39:15;8.70;;;3.30;;
74660;SDS011;63191;39.566;2.654;2023-04-28T13:41:44;8.40;;;2.80;;
74660;SDS011;63191;39.566;2.654;2023-04-28T13:44:10;8.70;;;3.40;;
74660;SDS011;63191;39.566;2.654;2023-04-28T13:46:35;11.80;;;3.70;;
74660;SDS011;63191;39.566;2.654;2023-04-28T13:49:02;5.50;;;2.80;;
74660;SDS011;63191;39.566;2.654;2023-04-28T13:51:29;7.70;;;3.10;;
74660;SDS011;63191;39.566;2.654;2023-04-28T13:53:59;7.90;;;2.70;;
74660;SDS011;63191;39.566;2.654;2023-04-28T13:56:29;6.60;;;2.70;;
74660;SDS011;63191;39.566;2.654;2023-04-28T13:58:56;8.80;;;2.90;;
74660;SDS011;63191;39.566;2.654;2023-04-28T14:01:22;7.60;;;2.50;;
74660;SDS011;63191;39.566;2.654;2023-04-28T14:03:49;9.10;;;3.20;;
74660;SDS011;63191;39.566;2.654;2023-04-28T14:06:15;6.30;;;2.30;;
74660;SDS011;63191;39.566;2.654;2023-04-28T14:08:42;8.50;;;2.40;;
74660;SDS011;63191;39.566;2.654;2023-04-28T14:11:07;7.40;;;2.70;;
74660;SDS011;63191;39.566;2.654;2023-04-28T14:13:34;6.90;;;2.10;;
74660;SDS011;63191;39.566;2.654;2023-04-28T14:16:00;5.60;;;1.70;;
74660;SDS011;63191;39.566;2.654;2023-04-28T14:18:26;7.60;;;2.30;;
74660;SDS011;63191;39.566;2.654;2023-04-28T14:20:54;6.40;;;1.70;;
74660;SDS011;63191;39.566;2.654;2023-04-28T14:23:21;7.60;;;2.40;;
74660;SDS011;63191;39.566;2.654;2023-04-28T14:25:47;7.60;;;1.90;;
74660;SDS011;63191;39.566;2.654;2023-04-28T14:28:13;7.70;;;1.60;;
74660;SDS011;63191;39.566;2.654;2023-04-28T14:30:38;8.60;;;1.80;;
74660;SDS011;63191;39.566;2.654;2023-04-28T14:33:06;6.20;;;1.90;;
74660;SDS011;63191;39.566;2.654;2023-04-28T14:35:33;6.60;;;1.50;;
74660;SDS011;63191;39.566;2.654;2023-04-28T14:37:58;24.90;;;9.10;;
74660;SDS011;63191;39.566;2.654;2023-04-28T14:40:24;7.80;;;2.50;;
74660;SDS011;63191;39.566;2.654;2023-04-28T14:42:51;6.60;;;1.80;;
74660;SDS011;63191;39.566;2.654;2023-04-28T14:45:17;5.60;;;1.60;;
74660;SDS011;63191;39.566;2.654;2023-04-28T14:47:44;9.60;;;1.70;;
74660;SDS011;63191;39.566;2.654;2023-04-28T14:50:09;8.00;;;1.60;;
74660;SDS011;63191;39.566;2.654;2023-04-28T14:52:36;6.20;;;1.30;;
74660;SDS011;63191;39.566;2.654;2023-04-28T14:55:02;5.60;;;1.50;;
74660;SDS011;63191;39.566;2.654;2023-04-28T14:57:29;5.20;;;1.10;;
74660;SDS011;63191;39.566;2.654;2023-04-28T14:59:58;6.30;;;1.10;;
74660;SDS011;63191;39.566;2.654;2023-04-28T15:02:24;6.10;;;1.30;;
74660;SDS011;63191;39.566;2.654;2023-04-28T15:04:54;7.60;;;1.60;;
74660;SDS011;63191;39.566;2.654;2023-04-28T15:07:21;6.50;;;1.20;;
74660;SDS011;63191;39.566;2.654;2023-04-28T15:09:48;7.60;;;1.40;;
74660;SDS011;63191;39.566;2.654;2023-04-28T15:12:14;5.30;;;1.10;;
74660;SDS011;63191;39.566;2.654;2023-04-28T15:14:40;6.10;;;1.20;;
74660;SDS011;63191;39.566;2.654;2023-04-28T15:17:06;7.30;;;1.30;;
74660;SDS011;63191;39.566;2.654;2023-04-28T15:19:34;7.00;;;1.50;;
74660;SDS011;63191;39.566;2.654;2023-04-28T15:22:00;7.90;;;1.40;;
74660;SDS011;63191;39.566;2.654;2023-04-28T15:24:26;7.30;;;1.50;;